• Join FlightAware (Why Join?)
  • Login
  • US Flag 
04:23PM EDT


 

Airport Tracker/Info


-or-


 

Live Flight TrackerFlight Track Log ✈ JLG99 ✈ 03-May-2012 ✈ KCHS - KINT

Flight Track Log - Related Links

Times and Time Zones

All times are in EDT time to prevent confusion due to time zone crossing. See the JLG99 flight status page for this flight to view local times or setup timezone preferences in your user account.

Time Position Orientation Groundspeed Altitude Reporting Facility
EDT Latitude Longitude Course Direction KTS MPH feet Rate Location/Type
09:04PM 33.0044 -80.0381 165° South  Level FlightAware Approximate
09:04PM 32.8619 -79.9917 33° Northeast 247 284 4,200  Level Jacksonville Center
09:05PM 32.9214 -79.9453 10° North 253 291 6,800 2,640 Climbing Jacksonville Center
09:06PM 32.9919 -79.9306 North 253 291 9,500 2,700 Climbing Jacksonville Center
09:07PM 33.0647 -79.9183 North 253 291 12,300 2,820 Climbing Jacksonville Center
09:08PM 33.1439 -79.9081 North 264 304 15,200 2,640 Climbing Jacksonville Center
09:09PM 33.2247 -79.8956 North 275 316 17,600 2,280 Climbing Jacksonville Center
09:10PM 33.3058 -79.8828 North 287 330 19,800 2,040 Climbing Jacksonville Center
09:11PM 33.3933 -79.8700 North 299 344 21,700 1,560 Climbing Jacksonville Center
09:12PM 33.4806 -79.8569 North 311 358 23,000 600 Climbing Jacksonville Center
09:13PM 33.6011 -79.8381 North 362 417 23,000  Level Jacksonville Center
09:14PM 33.7114 -79.8217 North 396 456 23,000  Level Jacksonville Center
09:15PM 33.8236 -79.8028 North 407 468 23,000  Level Jacksonville Center
09:16PM 33.9358 -79.7861 North 407 468 23,000  Level Jacksonville Center
09:17PM 34.0481 -79.7672 North 407 468 23,000 -540 Level Jacksonville Center
09:20PM 34.2964 -79.7294 North 422 486 21,300 -660 Descending Washington Center
09:21PM 34.4200 -79.7131 North 434 499 21,000 -180 Descending Washington Center
09:22PM 34.5353 -79.6964 North 428 493 21,000  Level Washington Center
09:23PM 34.6486 -79.6767 North 415 478 21,000  Level Washington Center
09:24PM 34.7725 -79.6578 North 410 472 21,000  Level Washington Center
09:25PM 34.8878 -79.6406 North 410 472 21,000  Level Washington Center
09:26PM 34.9986 -79.6361 North 410 472 21,000 -300 Level Washington Center
09:27PM 35.1156 -79.6317 North 402 463 20,400 -1,500 Descending Washington Center
09:28PM 35.2283 -79.6247 North 407 468 18,100 -2,220 Descending Washington Center
09:29PM 35.3331 -79.6197 341° North 407 468 16,100 -2,040 Descending Washington Center
09:36PM 35.8842 -79.8551 329° Northwest  Level FlightAware Approximate
09:37PM 35.9585 -79.9105 304° West  Level FlightAware Approximate
09:38PM 36.0075 -79.9989 316° Northwest  Level FlightAware Approximate
09:39PM 36.0690 -80.0736 316° Northwest  Level FlightAware Approximate